CST,Max TemperatureF,Mean TemperatureF,Min TemperatureF,Max Dew PointF,MeanDew PointF,Min DewpointF,Max Humidity, Mean Humidity, Min Humidity, Max Sea Level PressureIn, Mean Sea Level PressureIn, Min Sea Level PressureIn, Max VisibilityMiles, Mean VisibilityMiles, Min VisibilityMiles, Max Wind SpeedMPH, Mean Wind SpeedMPH, Max Gust SpeedMPH,PrecipitationIn, CloudCover, Events, WindDirDegrees
2012-12-1,80,76,71,72,70,69,100,89,71,30.14,30.09,30.04,10,10,10,18,12,24,0.00,1,,152
2012-12-2,81,76,70,71,70,69,100,88,67,30.15,30.09,30.07,10,10,10,17,12,22,0.00,0,,145
2012-12-3,80,74,68,71,68,65,100,84,62,30.07,30.02,29.97,10,10,10,21,10,28,0.00,2,,154
2012-12-4,82,74,66,73,70,64,100,88,69,30.15,30.09,30.02,10,9,1,34,9,40,0.00,5,Rain-Thunderstorm,141
2012-12-5,75,68,61,61,56,50,90,71,43,30.21,30.12,30.04,10,10,10,16,11,,0.00,2,,33
2012-12-6,72,64,55,67,61,55,100,92,70,30.03,29.95,29.87,10,5,0,12,4,,0.00,1,Fog,68
2012-12-7,80,74,67,70,68,65,96,84,66,29.88,29.83,29.77,10,10,10,17,10,24,0.00,4,,154
2012-12-8,81,76,71,70,70,69,93,85,69,29.90,29.85,29.81,10,10,10,18,11,24,0.00,2,,153
2012-12-9,78,74,71,72,71,69,100,90,76,29.91,29.85,29.77,10,7,4,18,10,23,0.00,6,,161
2012-12-10,73,62,50,72,45,24,96,61,28,30.12,29.96,29.81,10,9,5,34,15,43,0.00,6,,3
2012-12-11,53,50,46,34,30,25,61,45,34,30.22,30.14,30.09,10,10,10,22,16,28,0.00,5,,31
2012-12-12,60,54,48,47,37,28,83,54,30,30.33,30.26,30.22,10,10,10,13,8,,0.00,0,,55
2012-12-13,69,60,52,61,54,48,89,73,51,30.28,30.21,30.15,10,10,10,14,7,,0.00,5,,103
2012-12-14,75,70,66,68,65,62,88,82,69,30.13,30.02,29.91,10,10,10,21,12,28,0.00,7,Rain,145
2012-12-15,75,72,69,72,70,68,100,92,83,29.95,29.88,29.84,10,6,4,16,10,24,0.00,7,,152
2012-12-16,79,74,68,73,70,61,100,86,77,29.86,29.81,29.73,10,6,4,15,9,,0.00,7,Rain,171
2012-12-17,78,68,57,58,50,38,90,58,24,30.00,29.92,29.85,10,10,10,17,10,,0.00,2,,328
2012-12-18,78,66,53,70,63,53,100,85,60,29.96,29.88,29.82,10,10,6,22,9,28,0.00,1,Fog,176
2012-12-19,78,74,71,71,70,68,96,88,76,29.83,29.78,29.69,10,7,2,25,14,34,0.00,6,,166
2012-12-20,73,64,54,71,33,11,93,39,15,30.48,30.20,29.79,10,9,6,33,19,44,0.00,6,Rain,339
2012-12-21,57,52,46,47,30,16,72,43,23,30.54,30.45,30.36,10,10,10,16,10,,0.00,4,,20
2012-12-22,73,62,52,62,55,44,89,71,51,30.35,30.24,30.11,10,10,10,16,10,24,0.00,3,,138
2012-12-23,75,70,64,66,64,62,90,80,64,30.08,30.00,29.91,10,10,10,20,10,25,0.00,2,,184
2012-12-24,77,70,62,68,65,61,97,85,66,29.96,29.85,29.73,10,9,5,14,8,20,0.00,6,Rain,161
2012-12-25,80,63,43,70,54,27,94,66,17,30.14,29.74,29.61,10,9,5,32,18,40,0.00,3,,232
2012-12-26,51,44,37,43,30,23,76,58,44,30.29,30.18,30.11,10,10,10,22,14,29,0.00,3,,14
2012-12-27,57,54,50,54,50,41,97,86,71,30.10,29.94,29.80,10,8,3,18,11,,0.04,8,Rain,21
2012-12-28,71,62,48,56,51,37,100,79,35,30.18,29.87,29.77,10,6,0,21,9,24,0.00,5,Fog-Rain,351
2012-12-29,54,48,42,34,26,24,61,44,31,30.46,30.38,30.20,10,10,10,25,19,32,0.00,0,,17
2012-12-30,66,56,46,61,46,28,87,68,46,30.42,30.29,30.15,10,10,10,21,15,25,0.00,4,Rain,71
2012-12-31,72,69,66,68,65,61,97,88,81,30.12,30.00,29.90,10,8,2,15,10,30,0.02,8,Rain,172